createdAt,value
2023-03-04T00:00:40.534Z,0
2023-03-04T00:01:58.784Z,0
2023-03-04T00:03:02.981Z,0
2023-03-04T00:05:10.753Z,0
2023-03-04T00:06:14.203Z,0
2023-03-04T00:08:20.914Z,0
2023-03-04T00:10:26.216Z,0
2023-03-04T00:12:32.723Z,0
2023-03-04T00:13:36.184Z,0
2023-03-04T00:15:42.843Z,0
2023-03-04T00:17:50.234Z,0
2023-03-04T00:19:58.196Z,0
2023-03-04T00:21:01.310Z,0
2023-03-04T00:23:07.601Z,0
2023-03-04T00:25:16.898Z,0
2023-03-04T00:27:23.503Z,0
2023-03-04T00:28:26.888Z,0
2023-03-04T00:29:30.684Z,0
2023-03-04T00:30:33.177Z,0
2023-03-04T00:33:58.854Z,0
2023-03-04T00:35:03.747Z,0
2023-03-04T00:36:22.357Z,0
2023-03-04T00:37:25.453Z,0
2023-03-04T00:38:28.241Z,0
2023-03-04T00:40:34.616Z,0
2023-03-04T00:42:41.385Z,0
2023-03-04T00:44:48.811Z,0
2023-03-04T00:45:52.022Z,0
2023-03-04T00:47:58.740Z,0
2023-03-04T00:50:06.288Z,0
2023-03-04T00:52:13.500Z,0
2023-03-04T00:53:16.564Z,0
2023-03-04T00:54:19.369Z,0
2023-03-04T00:55:22.722Z,0
2023-03-04T00:57:28.865Z,0
2023-03-04T00:58:31.594Z,0
2023-03-04T00:59:34.065Z,0
2023-03-04T01:00:36.780Z,0
2023-03-04T01:02:44.226Z,0
2023-03-04T01:03:47.263Z,0
2023-03-04T01:04:51.333Z,0
2023-03-04T01:05:55.466Z,0
2023-03-04T01:08:00.700Z,0
2023-03-04T01:09:04.172Z,0
2023-03-04T01:10:06.964Z,0
2023-03-04T01:11:09.965Z,0
2023-03-04T01:13:16.078Z,0
2023-03-04T01:15:22.465Z,0
2023-03-04T01:16:25.147Z,0
2023-03-04T01:18:31.335Z,0
2023-03-04T01:20:38.198Z,0
2023-03-04T01:22:44.741Z,0
2023-03-04T01:23:47.351Z,0
2023-03-04T01:25:54.057Z,0
2023-03-04T01:28:00.249Z,0
2023-03-04T01:30:05.450Z,0
2023-03-04T01:31:09.186Z,0
2023-03-04T01:33:15.232Z,0
2023-03-04T01:35:22.249Z,0
2023-03-04T01:37:29.828Z,0
2023-03-04T01:38:33.564Z,0
2023-03-04T01:40:41.052Z,0
2023-03-04T01:42:47.628Z,0
2023-03-04T01:44:53.685Z,0
2023-03-04T01:45:57.160Z,0
2023-03-04T01:48:03.841Z,0
2023-03-04T01:50:11.620Z,0
2023-03-04T01:52:18.114Z,0
2023-03-04T01:53:22.270Z,0
2023-03-04T01:55:28.427Z,0
2023-03-04T01:57:34.358Z,0
2023-03-04T01:58:37.353Z,0
2023-03-04T01:59:40.449Z,0
2023-03-04T02:00:44.157Z,0
2023-03-04T02:02:50.847Z,0
2023-03-04T02:04:56.556Z,0
2023-03-04T02:05:59.719Z,0
2023-03-04T02:08:06.830Z,0
2023-03-04T02:10:15.407Z,0
2023-03-04T02:12:21.639Z,0
2023-03-04T02:13:25.054Z,0
2023-03-04T02:15:32.095Z,0
2023-03-04T02:17:38.967Z,0
2023-03-04T02:19:45.463Z,0
2023-03-04T02:20:48.564Z,0
2023-03-04T02:22:54.886Z,0
2023-03-04T02:25:02.445Z,0
2023-03-04T02:26:05.830Z,0
2023-03-04T02:28:11.923Z,0
2023-03-04T02:30:17.187Z,0
2023-03-04T02:31:20.508Z,0
2023-03-04T02:33:27.077Z,0
2023-03-04T02:35:33.861Z,0
2023-03-04T02:37:40.702Z,0
2023-03-04T02:38:43.838Z,0
2023-03-04T02:40:50.806Z,0
2023-03-04T02:42:57.736Z,0
2023-03-04T02:44:01.438Z,0
2023-03-04T02:45:04.904Z,0
2023-03-04T02:46:08.654Z,0
2023-03-04T02:48:14.918Z,0
2023-03-04T02:50:21.350Z,0
2023-03-04T02:51:24.428Z,0
2023-03-04T02:53:31.207Z,0
2023-03-04T02:55:37.900Z,0
2023-03-04T02:56:42.025Z,0
2023-03-04T02:57:45.454Z,0
2023-03-04T02:58:48.198Z,0
2023-03-04T03:00:54.725Z,0
2023-03-04T03:01:58.300Z,0
2023-03-04T03:04:05.514Z,0
2023-03-04T03:06:11.860Z,0
2023-03-04T03:08:18.009Z,0
2023-03-04T03:09:21.317Z,0
2023-03-04T03:11:29.188Z,0
2023-03-04T03:13:36.077Z,0
2023-03-04T03:15:41.967Z,0
2023-03-04T03:16:45.270Z,0
2023-03-04T03:17:47.736Z,0
2023-03-04T03:18:51.228Z,0
2023-03-04T03:20:57.281Z,0
2023-03-04T03:21:59.990Z,0
2023-03-04T03:23:03.011Z,0
2023-03-04T03:24:06.478Z,0
2023-03-04T03:26:13.113Z,0
2023-03-04T03:27:16.782Z,0
2023-03-04T03:28:20.881Z,0
2023-03-04T03:29:23.941Z,0
2023-03-04T03:31:30.804Z,0
2023-03-04T03:33:38.225Z,0
2023-03-04T03:34:41.637Z,0
2023-03-04T03:36:48.246Z,0
2023-03-04T03:38:54.292Z,0
2023-03-04T03:41:00.524Z,0
2023-03-04T03:42:03.410Z,0
2023-03-04T03:44:11.039Z,0
2023-03-04T03:46:16.961Z,0
2023-03-04T03:48:23.501Z,0
2023-03-04T03:49:26.508Z,0
2023-03-04T03:51:32.219Z,0
2023-03-04T03:53:38.372Z,0
2023-03-04T03:55:44.689Z,0
2023-03-04T03:56:48.692Z,0
2023-03-04T03:58:54.630Z,0
2023-03-04T04:01:01.897Z,0
2023-03-04T04:03:10.517Z,0
2023-03-04T04:04:13.325Z,0
2023-03-04T04:05:16.092Z,0
2023-03-04T04:06:19.752Z,0
2023-03-04T04:08:25.072Z,0
2023-03-04T04:10:31.635Z,0
2023-03-04T04:11:34.934Z,0
2023-03-04T04:12:37.933Z,0
2023-03-04T04:13:40.976Z,0
2023-03-04T04:15:47.942Z,0
2023-03-04T04:16:51.474Z,0
2023-03-04T04:17:54.817Z,0
2023-03-04T04:18:58.189Z,0
2023-03-04T04:21:04.535Z,0
2023-03-04T04:22:07.321Z,0
2023-03-04T04:23:10.351Z,0
2023-03-04T04:24:13.703Z,0
2023-03-04T04:26:19.899Z,0
2023-03-04T04:27:22.980Z,0
2023-03-04T04:28:25.973Z,0
2023-03-04T04:29:28.829Z,0
2023-03-04T04:31:36.432Z,0
2023-03-04T04:32:39.869Z,0
2023-03-04T04:33:42.955Z,0
2023-03-04T04:34:46.308Z,0
2023-03-04T04:36:52.832Z,0
2023-03-04T04:37:55.656Z,0
2023-03-04T04:38:58.841Z,0
2023-03-04T04:40:02.209Z,0
2023-03-04T04:42:08.043Z,0
2023-03-04T04:44:13.824Z,0
2023-03-04T04:45:16.971Z,0
2023-03-04T04:47:24.798Z,0
2023-03-04T04:49:31.021Z,0
2023-03-04T04:51:38.413Z,0
2023-03-04T04:52:41.780Z,0
2023-03-04T04:54:47.934Z,0
2023-03-04T04:56:54.121Z,0
2023-03-04T04:59:00.292Z,0
2023-03-04T05:00:04.041Z,0
2023-03-04T05:02:10.298Z,0
2023-03-04T05:04:18.104Z,0
2023-03-04T05:06:23.708Z,0
2023-03-04T05:07:27.162Z,0
2023-03-04T05:09:33.308Z,0
2023-03-04T05:11:38.848Z,0
2023-03-04T05:13:45.400Z,0
2023-03-04T05:14:48.185Z,0
2023-03-04T05:16:53.910Z,0
2023-03-04T05:19:01.251Z,0
2023-03-04T05:21:07.417Z,0
2023-03-04T05:22:10.209Z,0
2023-03-04T05:24:15.955Z,0
2023-03-04T05:26:22.248Z,0
2023-03-04T05:28:28.667Z,0
2023-03-04T05:29:30.862Z,0
2023-03-04T05:31:37.399Z,0
2023-03-04T05:33:43.542Z,0
2023-03-04T05:35:50.651Z,0
2023-03-04T05:36:53.403Z,0
2023-03-04T05:38:59.538Z,0
2023-03-04T05:41:05.797Z,0
2023-03-04T05:43:11.369Z,0
2023-03-04T05:44:14.706Z,0
2023-03-04T05:46:22.458Z,0
2023-03-04T05:48:28.555Z,1
2023-03-04T05:50:36.321Z,1
2023-03-04T05:51:39.035Z,1
2023-03-04T05:52:42.109Z,1
2023-03-04T05:53:44.905Z,1
2023-03-04T05:55:50.524Z,2
2023-03-04T05:56:53.901Z,2
2023-03-04T05:57:56.617Z,2
2023-03-04T05:58:59.944Z,3
2023-03-04T06:01:05.409Z,3
2023-03-04T06:02:08.722Z,3
2023-03-04T06:03:12.454Z,4
2023-03-04T06:04:15.941Z,4
2023-03-04T06:06:23.503Z,4
2023-03-04T06:08:29.660Z,5
2023-03-04T06:09:33.069Z,5
2023-03-04T06:11:39.040Z,5
2023-03-04T06:13:44.385Z,6
2023-03-04T06:15:52.034Z,4
2023-03-04T06:16:55.032Z,5
2023-03-04T06:19:01.354Z,6
2023-03-04T06:21:08.020Z,6
2023-03-04T06:23:15.002Z,7
2023-03-04T06:24:18.255Z,8
2023-03-04T06:26:24.150Z,7
2023-03-04T06:28:29.993Z,8
2023-03-04T06:30:36.419Z,10
2023-03-04T06:31:40.245Z,10
2023-03-04T06:33:46.328Z,11
2023-03-04T06:35:51.996Z,12
2023-03-04T06:37:59.261Z,15
2023-03-04T06:39:02.063Z,16
2023-03-04T06:41:07.092Z,19
2023-03-04T06:43:12.704Z,18
2023-03-04T06:45:18.319Z,18
2023-03-04T06:46:21.962Z,19
2023-03-04T06:48:28.866Z,22
2023-03-04T06:50:36.078Z,22
2023-03-04T06:52:42.808Z,23
2023-03-04T06:53:46.937Z,21
2023-03-04T06:55:53.343Z,24
2023-03-04T06:57:58.672Z,24
2023-03-04T07:00:05.879Z,23
2023-03-04T07:01:09.997Z,21
2023-03-04T07:03:16.600Z,22
2023-03-04T07:05:23.205Z,27
2023-03-04T07:07:29.032Z,24
2023-03-04T07:08:31.915Z,22
2023-03-04T07:10:38.811Z,22
2023-03-04T07:12:44.967Z,22
2023-03-04T07:14:51.463Z,26
2023-03-04T07:15:55.237Z,29
2023-03-04T07:18:01.066Z,30
2023-03-04T07:20:07.147Z,32
2023-03-04T07:22:13.299Z,36
2023-03-04T07:23:16.578Z,38
2023-03-04T07:25:23.282Z,41
2023-03-04T07:27:29.272Z,40
2023-03-04T07:29:35.241Z,38
2023-03-04T07:30:38.618Z,36
2023-03-04T07:32:46.475Z,36
2023-03-04T07:34:52.097Z,35
2023-03-04T07:36:57.951Z,35
2023-03-04T07:38:01.053Z,37
2023-03-04T07:40:07.673Z,41
2023-03-04T07:42:14.142Z,44
2023-03-04T07:44:20.581Z,49
2023-03-04T07:45:24.316Z,58
2023-03-04T07:47:31.141Z,60
2023-03-04T07:49:37.857Z,57
2023-03-04T07:51:44.548Z,57
2023-03-04T07:52:47.754Z,56
2023-03-04T07:53:51.110Z,55
2023-03-04T07:54:54.813Z,60
2023-03-04T07:57:02.231Z,53
2023-03-04T07:58:05.278Z,49
2023-03-04T07:59:09.111Z,46
2023-03-04T08:00:12.802Z,47
2023-03-04T08:02:20.165Z,48
2023-03-04T08:04:26.020Z,47
2023-03-04T08:05:28.719Z,45
2023-03-04T08:07:35.638Z,43
2023-03-04T08:09:40.783Z,44
2023-03-04T08:10:43.251Z,45
2023-03-04T08:11:46.379Z,47
2023-03-04T08:12:50.489Z,49
2023-03-04T08:14:56.885Z,51
2023-03-04T08:17:03.786Z,55
2023-03-04T08:18:06.341Z,55
2023-03-04T08:20:13.437Z,54
2023-03-04T08:22:20.156Z,53
2023-03-04T08:24:27.013Z,48
2023-03-04T08:25:29.826Z,45
2023-03-04T08:27:36.260Z,46
2023-03-04T08:29:42.635Z,50
2023-03-04T08:31:51.875Z,53
2023-03-04T08:32:55.164Z,54
2023-03-04T08:35:02.245Z,58
2023-03-04T08:37:08.197Z,59
2023-03-04T08:39:14.277Z,62
2023-03-04T08:40:17.734Z,62
2023-03-04T08:42:23.809Z,60
2023-03-04T08:44:30.799Z,57
2023-03-04T08:46:37.301Z,57
2023-03-04T08:47:40.118Z,55
2023-03-04T08:49:46.242Z,51
2023-03-04T08:51:52.341Z,49
2023-03-04T08:53:58.580Z,49
2023-03-04T08:55:02.126Z,49
2023-03-04T08:57:08.182Z,55
2023-03-04T08:59:14.369Z,60
2023-03-04T09:01:21.493Z,62
2023-03-04T09:02:24.596Z,59
2023-03-04T09:04:32.323Z,60
2023-03-04T09:06:38.577Z,61
2023-03-04T09:08:44.795Z,55
2023-03-04T09:09:47.899Z,53
2023-03-04T09:11:54.172Z,49
2023-03-04T09:14:00.762Z,43
2023-03-04T09:15:14.128Z,42
2023-03-04T09:16:18.662Z,41
2023-03-04T09:17:21.775Z,40
2023-03-04T09:19:27.845Z,43
2023-03-04T09:21:33.913Z,47
2023-03-04T09:23:40.788Z,56
2023-03-04T09:24:43.459Z,61
2023-03-04T09:26:49.556Z,64
2023-03-04T09:28:56.539Z,73
2023-03-04T09:31:04.030Z,72
2023-03-04T09:32:08.528Z,71
2023-03-04T09:34:14.849Z,67
2023-03-04T09:36:21.557Z,72
2023-03-04T09:38:27.986Z,76
2023-03-04T09:39:30.997Z,71
2023-03-04T09:41:37.662Z,65
2023-03-04T09:43:45.226Z,63
2023-03-04T09:45:51.944Z,65
2023-03-04T09:46:55.260Z,67
2023-03-04T09:49:02.674Z,69
2023-03-04T09:51:09.587Z,70
2023-03-04T09:52:12.928Z,71
2023-03-04T09:54:19.089Z,74
2023-03-04T09:56:26.226Z,75
2023-03-04T09:57:29.830Z,76
2023-03-04T09:59:36.348Z,86
2023-03-04T10:01:41.828Z,103
2023-03-04T10:02:44.704Z,106
2023-03-04T10:04:52.599Z,106
2023-03-04T10:06:59.437Z,100
2023-03-04T10:08:02.874Z,96
2023-03-04T10:10:08.774Z,98
2023-03-04T10:12:14.783Z,98
2023-03-04T10:13:18.214Z,97
2023-03-04T10:15:25.347Z,98
2023-03-04T10:17:31.562Z,96
2023-03-04T10:18:34.408Z,94
2023-03-04T10:19:38.283Z,90
2023-03-04T10:20:41.550Z,87
2023-03-04T10:21:44.992Z,86
2023-03-04T10:22:48.406Z,87
2023-03-04T10:23:51.486Z,88
2023-03-04T10:25:57.957Z,89
2023-03-04T10:27:01.077Z,89
2023-03-04T10:29:07.541Z,89
2023-03-04T10:31:13.127Z,83
2023-03-04T10:33:20.166Z,86
2023-03-04T10:34:23.568Z,82
2023-03-04T10:35:27.948Z,81
2023-03-04T10:36:32.075Z,85
2023-03-04T10:38:38.395Z,88
2023-03-04T10:39:41.686Z,88
2023-03-04T10:40:47.712Z,86
2023-03-04T10:41:51.653Z,80
2023-03-04T10:43:57.758Z,72
2023-03-04T10:45:01.170Z,72
2023-03-04T10:46:05.286Z,69
2023-03-04T10:47:08.329Z,73
2023-03-04T10:49:15.815Z,84
2023-03-04T10:50:19.270Z,82
2023-03-04T10:52:26.209Z,74
2023-03-04T10:54:33.315Z,81
2023-03-04T10:56:40.410Z,119
2023-03-04T10:57:43.450Z,117
2023-03-04T10:59:49.946Z,114
2023-03-04T11:01:55.794Z,120
2023-03-04T11:02:58.780Z,116
2023-03-04T11:05:06.300Z,121
2023-03-04T11:06:09.493Z,133
2023-03-04T11:08:16.350Z,126
2023-03-04T11:10:22.850Z,118
2023-03-04T11:11:26.901Z,116
2023-03-04T11:13:32.227Z,116
2023-03-04T11:15:37.803Z,109
2023-03-04T11:16:42.027Z,102
2023-03-04T11:18:48.244Z,114
2023-03-04T11:20:53.774Z,117
2023-03-04T11:21:56.893Z,116
2023-03-04T11:24:04.101Z,118
2023-03-04T11:26:09.678Z,120
2023-03-04T11:27:13.025Z,124
2023-03-04T11:29:19.416Z,123
2023-03-04T11:31:26.351Z,138
2023-03-04T11:32:30.096Z,137
2023-03-04T11:33:32.919Z,136
2023-03-04T11:34:36.304Z,141
2023-03-04T11:35:40.309Z,150
2023-03-04T11:36:43.394Z,143
2023-03-04T11:37:46.455Z,136
2023-03-04T11:39:53.727Z,155
2023-03-04T11:40:57.095Z,146
2023-03-04T11:43:03.233Z,159
2023-03-04T11:44:06.224Z,163
2023-03-04T11:45:35.082Z,169
2023-03-04T11:46:38.964Z,191
2023-03-04T11:48:45.744Z,245
2023-03-04T11:49:47.916Z,212
2023-03-04T11:51:53.432Z,112
2023-03-04T11:54:00.939Z,106
2023-03-04T11:55:04.389Z,118
2023-03-04T11:57:12.831Z,123
2023-03-04T11:59:18.771Z,122
2023-03-04T12:00:21.296Z,114
2023-03-04T12:02:28.897Z,106
2023-03-04T12:03:32.458Z,103
2023-03-04T12:05:39.454Z,96
2023-03-04T12:06:42.917Z,86
2023-03-04T12:08:48.491Z,83
2023-03-04T12:10:55.471Z,82
2023-03-04T12:11:57.719Z,88
2023-03-04T12:14:04.009Z,106
2023-03-04T12:16:10.778Z,114
2023-03-04T12:17:14.165Z,122
2023-03-04T12:19:22.170Z,111
2023-03-04T12:20:25.325Z,108
2023-03-04T12:22:31.717Z,121
2023-03-04T12:24:37.723Z,117
2023-03-04T12:25:41.875Z,117
2023-03-04T12:27:47.463Z,150
2023-03-04T12:28:50.553Z,152
2023-03-04T12:29:53.355Z,136
2023-03-04T12:30:56.698Z,130
2023-03-04T12:33:04.261Z,161
2023-03-04T12:34:07.097Z,181
2023-03-04T12:36:13.037Z,221
2023-03-04T12:37:17.943Z,246
2023-03-04T12:39:25.177Z,219
2023-03-04T12:41:33.248Z,207
2023-03-04T12:42:36.616Z,206
2023-03-04T12:44:42.815Z,192
2023-03-04T12:45:45.937Z,461
2023-03-04T12:47:52.576Z,233
2023-03-04T12:49:59.421Z,201
2023-03-04T12:51:02.826Z,186
2023-03-04T12:53:09.444Z,162
2023-03-04T12:55:15.599Z,188
2023-03-04T12:56:19.105Z,452
2023-03-04T12:58:26.691Z,148
2023-03-04T13:00:32.780Z,118
2023-03-04T13:01:35.781Z,114
2023-03-04T13:03:42.751Z,287
2023-03-04T13:04:46.391Z,131
2023-03-04T13:06:51.833Z,120
2023-03-04T13:08:59.903Z,130
2023-03-04T13:10:02.643Z,122
2023-03-04T13:12:09.066Z,118
2023-03-04T13:14:16.362Z,122
2023-03-04T13:15:19.226Z,121
2023-03-04T13:16:23.264Z,103
2023-03-04T13:17:26.078Z,86
2023-03-04T13:18:29.136Z,76
2023-03-04T13:19:32.213Z,74
2023-03-04T13:20:35.639Z,65
2023-03-04T13:22:41.181Z,52
2023-03-04T13:23:44.585Z,51
2023-03-04T13:25:50.901Z,42
2023-03-04T13:27:59.592Z,44
2023-03-04T13:29:03.433Z,54
2023-03-04T13:31:09.613Z,103
2023-03-04T13:33:16.963Z,155
2023-03-04T13:34:19.990Z,149
2023-03-04T13:36:26.723Z,139
2023-03-04T13:37:29.757Z,172
2023-03-04T13:38:32.979Z,285
2023-03-04T13:39:35.697Z,217
2023-03-04T13:41:42.353Z,158
2023-03-04T13:42:45.618Z,133
2023-03-04T13:43:48.976Z,106
2023-03-04T13:44:52.892Z,89
2023-03-04T13:46:59.666Z,77
2023-03-04T13:48:03.033Z,78
2023-03-04T13:49:06.105Z,80
2023-03-04T13:50:09.741Z,87
2023-03-04T13:51:32.184Z,119
2023-03-04T13:52:35.565Z,146
2023-03-04T13:54:42.266Z,315
2023-03-04T13:55:45.031Z,177
2023-03-04T13:57:51.313Z,142
2023-03-04T13:58:54.478Z,127
2023-03-04T14:01:01.735Z,104
2023-03-04T14:03:08.284Z,122
2023-03-04T14:05:14.469Z,121
2023-03-04T14:06:18.121Z,112
2023-03-04T14:08:24.551Z,92
2023-03-04T14:10:30.164Z,88
2023-03-04T14:11:33.579Z,85
2023-03-04T14:13:40.778Z,71
2023-03-04T14:15:47.969Z,69
2023-03-04T14:16:51.092Z,83
2023-03-04T14:18:58.048Z,63
2023-03-04T14:21:04.512Z,60
2023-03-04T14:22:07.856Z,60
2023-03-04T14:24:14.219Z,53
2023-03-04T14:26:20.700Z,46
2023-03-04T14:27:23.595Z,45
2023-03-04T14:28:26.591Z,47
2023-03-04T14:29:29.788Z,48
2023-03-04T14:30:46.188Z,47
2023-03-04T14:31:50.491Z,47
2023-03-04T14:32:52.847Z,48
2023-03-04T14:34:59.146Z,51
2023-03-04T14:36:02.488Z,54
2023-03-04T14:38:08.112Z,61
2023-03-04T14:40:14.536Z,68
2023-03-04T14:41:17.995Z,327
2023-03-04T14:42:21.086Z,98
2023-03-04T14:43:23.607Z,80
2023-03-04T14:45:30.557Z,95
2023-03-04T14:46:33.760Z,93
2023-03-04T14:48:41.339Z,77
2023-03-04T14:50:47.754Z,74
2023-03-04T14:51:51.117Z,76
2023-03-04T14:53:57.272Z,81
2023-03-04T14:56:03.970Z,94
2023-03-04T14:57:07.372Z,108
2023-03-04T14:59:13.733Z,115
2023-03-04T15:01:21.789Z,110
2023-03-04T15:02:24.315Z,109
2023-03-04T15:03:28.489Z,107
2023-03-04T15:04:32.227Z,109
2023-03-04T15:06:38.425Z,111
2023-03-04T15:07:41.533Z,107
2023-03-04T15:09:47.980Z,104
2023-03-04T15:10:50.479Z,104
2023-03-04T15:12:57.091Z,97
2023-03-04T15:15:03.011Z,89
2023-03-04T15:16:06.182Z,85
2023-03-04T15:18:13.242Z,95
2023-03-04T15:20:22.968Z,104
2023-03-04T15:21:25.700Z,101
2023-03-04T15:23:31.141Z,93
2023-03-04T15:25:37.367Z,80
2023-03-04T15:27:43.352Z,76
2023-03-04T15:28:46.502Z,74
2023-03-04T15:30:53.933Z,75
2023-03-04T15:33:00.262Z,72
2023-03-04T15:34:03.728Z,71
2023-03-04T15:36:11.606Z,74
2023-03-04T15:38:17.656Z,74
2023-03-04T15:40:24.303Z,71
2023-03-04T15:41:27.324Z,68
2023-03-04T15:43:32.728Z,68
2023-03-04T15:45:39.296Z,60
2023-03-04T15:47:46.625Z,51
2023-03-04T15:48:50.136Z,50
2023-03-04T15:50:57.125Z,47
2023-03-04T15:53:03.681Z,49
2023-03-04T15:55:09.913Z,51
2023-03-04T15:56:12.670Z,52
2023-03-04T15:58:18.737Z,51
2023-03-04T16:00:25.398Z,47
2023-03-04T16:01:28.924Z,47
2023-03-04T16:03:34.877Z,49
2023-03-04T16:05:42.116Z,45
2023-03-04T16:07:49.783Z,39
2023-03-04T16:08:53.137Z,37
2023-03-04T16:10:59.468Z,36
2023-03-04T16:13:06.184Z,34
2023-03-04T16:15:12.659Z,32
2023-03-04T16:16:16.545Z,31
2023-03-04T16:18:23.064Z,28
2023-03-04T16:20:28.888Z,24
2023-03-04T16:22:36.191Z,22
2023-03-04T16:23:39.360Z,21
2023-03-04T16:25:44.960Z,20
2023-03-04T16:27:51.092Z,19
2023-03-04T16:29:57.677Z,17
2023-03-04T16:31:00.522Z,17
2023-03-04T16:33:06.983Z,16
2023-03-04T16:35:13.361Z,14
2023-03-04T16:36:17.033Z,14
2023-03-04T16:37:20.491Z,14
2023-03-04T16:38:24.706Z,13
2023-03-04T16:40:30.782Z,12
2023-03-04T16:41:33.502Z,11
2023-03-04T16:43:40.655Z,10
2023-03-04T16:45:47.498Z,9
2023-03-04T16:47:55.151Z,8
2023-03-04T16:48:58.522Z,8
2023-03-04T16:51:05.351Z,7
2023-03-04T16:53:11.551Z,6
2023-03-04T16:55:19.278Z,5
2023-03-04T16:56:22.902Z,4
2023-03-04T16:58:29.638Z,3
2023-03-04T17:00:35.528Z,3
2023-03-04T17:02:42.632Z,2
2023-03-04T17:03:46.278Z,2
2023-03-04T17:05:52.057Z,1
2023-03-04T17:07:58.308Z,1
2023-03-04T17:10:05.521Z,0
2023-03-04T17:11:08.262Z,0
2023-03-04T17:13:15.023Z,0
2023-03-04T17:15:22.211Z,0
2023-03-04T17:17:29.001Z,0
2023-03-04T17:18:32.013Z,0
2023-03-04T17:20:38.460Z,0
2023-03-04T17:22:44.477Z,0
2023-03-04T17:24:51.279Z,0
2023-03-04T17:25:55.387Z,0
2023-03-04T17:28:01.531Z,0
2023-03-04T17:30:08.942Z,0
2023-03-04T17:32:16.435Z,0
2023-03-04T17:33:19.556Z,0
2023-03-04T17:35:25.703Z,0
2023-03-04T17:37:31.723Z,0
2023-03-04T17:39:38.731Z,0
2023-03-04T17:40:41.435Z,0
2023-03-04T17:41:45.561Z,0
2023-03-04T17:42:48.613Z,0
2023-03-04T17:44:55.675Z,0
2023-03-04T17:47:01.580Z,0
2023-03-04T17:48:04.008Z,0
2023-03-04T17:49:07.722Z,0
2023-03-04T17:50:11.372Z,0
2023-03-04T17:52:18.100Z,0
2023-03-04T17:53:21.386Z,0
2023-03-04T17:54:25.022Z,0
2023-03-04T17:55:28.402Z,0
2023-03-04T17:57:35.432Z,0
2023-03-04T17:58:38.804Z,0
2023-03-04T17:59:42.538Z,0
2023-03-04T18:00:46.121Z,0
2023-03-04T18:02:55.147Z,0
2023-03-04T18:05:02.026Z,0
2023-03-04T18:06:05.180Z,0
2023-03-04T18:08:10.991Z,0
2023-03-04T18:10:17.620Z,0
2023-03-04T18:12:24.461Z,0
2023-03-04T18:13:28.560Z,0
2023-03-04T18:15:33.756Z,0
2023-03-04T18:17:39.405Z,0
2023-03-04T18:19:46.588Z,0
2023-03-04T18:20:49.955Z,0
2023-03-04T18:22:57.084Z,0
2023-03-04T18:25:03.210Z,0
2023-03-04T18:27:09.651Z,0
2023-03-04T18:28:12.138Z,0
2023-03-04T18:30:19.123Z,0
2023-03-04T18:32:26.549Z,0
2023-03-04T18:34:33.121Z,0
2023-03-04T18:35:36.668Z,0
2023-03-04T18:37:42.797Z,0
2023-03-04T18:39:49.288Z,0
2023-03-04T18:41:55.202Z,0
2023-03-04T18:42:58.348Z,0
2023-03-04T18:45:06.026Z,0
2023-03-04T18:47:13.071Z,0
2023-03-04T18:49:19.483Z,0
2023-03-04T18:50:22.882Z,0
2023-03-04T18:51:25.676Z,0
2023-03-04T18:52:28.412Z,0
2023-03-04T18:54:34.351Z,0
2023-03-04T18:55:37.811Z,0
2023-03-04T18:56:40.890Z,0
2023-03-04T18:57:44.285Z,0
2023-03-04T18:59:50.228Z,0
2023-03-04T19:00:54.424Z,0
2023-03-04T19:03:01.788Z,0
2023-03-04T19:05:08.892Z,0
2023-03-04T19:07:15.915Z,0
2023-03-04T19:08:18.633Z,0
2023-03-04T19:09:21.136Z,0
2023-03-04T19:10:24.246Z,0
2023-03-04T19:12:31.027Z,0
2023-03-04T19:13:34.379Z,0
2023-03-04T19:14:37.181Z,0
2023-03-04T19:15:40.318Z,0
2023-03-04T19:17:48.198Z,0
2023-03-04T19:18:51.088Z,0
2023-03-04T19:19:54.435Z,0
2023-03-04T19:20:57.432Z,0
2023-03-04T19:23:03.694Z,0
2023-03-04T19:25:10.622Z,0
2023-03-04T19:26:13.993Z,0
2023-03-04T19:28:20.155Z,0
2023-03-04T19:30:27.236Z,0
2023-03-04T19:32:34.948Z,0
2023-03-04T19:33:38.183Z,0
2023-03-04T19:35:44.124Z,0
2023-03-04T19:37:50.293Z,0
2023-03-04T19:39:56.767Z,0
2023-03-04T19:40:59.999Z,0
2023-03-04T19:43:05.377Z,0
2023-03-04T19:45:12.003Z,0
2023-03-04T19:47:18.258Z,0
2023-03-04T19:48:22.391Z,0
2023-03-04T19:50:28.567Z,0
2023-03-04T19:52:34.598Z,0
2023-03-04T19:53:37.880Z,0
2023-03-04T19:54:41.341Z,0
2023-03-04T19:55:44.999Z,0
2023-03-04T19:57:51.659Z,0
2023-03-04T19:58:55.092Z,0
2023-03-04T19:59:58.264Z,0
2023-03-04T20:01:01.864Z,0
2023-03-04T20:03:07.864Z,0
2023-03-04T20:04:12.400Z,0
2023-03-04T20:05:16.068Z,0
2023-03-04T20:06:19.775Z,0
2023-03-04T20:08:25.571Z,0
2023-03-04T20:09:28.578Z,0
2023-03-04T20:10:32.322Z,0
2023-03-04T20:12:00.836Z,0
2023-03-04T20:14:07.912Z,0
2023-03-04T20:16:14.198Z,0
2023-03-04T20:18:21.756Z,0
2023-03-04T20:19:25.916Z,0
2023-03-04T20:21:32.069Z,0
2023-03-04T20:23:37.568Z,0
2023-03-04T20:25:43.733Z,0
2023-03-04T20:26:46.467Z,0
2023-03-04T20:28:52.504Z,0
2023-03-04T20:30:58.593Z,0
2023-03-04T20:33:05.431Z,0
2023-03-04T20:34:08.219Z,0
2023-03-04T20:36:15.506Z,0
2023-03-04T20:38:20.906Z,0
2023-03-04T20:39:32.234Z,0
2023-03-04T20:40:34.774Z,0
2023-03-04T20:41:37.948Z,0
2023-03-04T20:43:43.501Z,0
2023-03-04T20:45:50.494Z,0
2023-03-04T20:47:56.271Z,0
2023-03-04T20:48:59.571Z,0
2023-03-04T20:51:07.185Z,0
2023-03-04T20:53:13.656Z,0
2023-03-04T20:54:16.769Z,0
2023-03-04T20:55:20.126Z,0
2023-03-04T20:56:22.722Z,0
2023-03-04T20:58:28.236Z,0
2023-03-04T21:00:33.231Z,0
2023-03-04T21:01:36.427Z,0
2023-03-04T21:02:39.122Z,0
2023-03-04T21:03:42.581Z,0
2023-03-04T21:05:49.190Z,0
2023-03-04T21:06:53.324Z,0
2023-03-04T21:08:59.136Z,0
2023-03-04T21:11:04.733Z,0
2023-03-04T21:13:10.670Z,0
2023-03-04T21:14:14.096Z,0
2023-03-04T21:16:20.133Z,0
2023-03-04T21:18:29.657Z,0
2023-03-04T21:20:35.685Z,0
2023-03-04T21:21:39.478Z,0
2023-03-04T21:23:46.525Z,0
2023-03-04T21:25:52.604Z,0
2023-03-04T21:27:59.057Z,0
2023-03-04T21:29:02.063Z,0
2023-03-04T21:31:08.726Z,0
2023-03-04T21:32:27.732Z,0
2023-03-04T21:33:31.260Z,0
2023-03-04T21:35:37.658Z,0
2023-03-04T21:36:41.038Z,0
2023-03-04T21:38:48.316Z,0
2023-03-04T21:40:54.271Z,0
2023-03-04T21:43:03.671Z,0
2023-03-04T21:44:07.069Z,0
2023-03-04T21:46:13.312Z,0
2023-03-04T21:48:19.287Z,0
2023-03-04T21:49:22.384Z,0
2023-03-04T21:50:25.198Z,0
2023-03-04T21:51:28.820Z,0
2023-03-04T21:53:34.818Z,0
2023-03-04T21:54:39.070Z,0
2023-03-04T21:55:41.875Z,0
2023-03-04T21:56:45.563Z,0
2023-03-04T21:58:51.157Z,0
2023-03-04T21:59:54.592Z,0
2023-03-04T22:00:58.093Z,0
2023-03-04T22:02:01.150Z,0
2023-03-04T22:04:07.591Z,0
2023-03-04T22:06:13.841Z,0
2023-03-04T22:07:16.759Z,0
2023-03-04T22:09:23.579Z,0
2023-03-04T22:11:30.134Z,0
2023-03-04T22:13:35.951Z,0
2023-03-04T22:14:39.049Z,0
2023-03-04T22:16:58.195Z,0
2023-03-04T22:19:03.643Z,0
2023-03-04T22:21:09.282Z,0
2023-03-04T22:22:12.725Z,0
2023-03-04T22:23:16.114Z,0
2023-03-04T22:24:19.630Z,0
2023-03-04T22:26:26.219Z,0
2023-03-04T22:27:29.191Z,0
2023-03-04T22:28:31.915Z,0
2023-03-04T22:29:34.921Z,0
2023-03-04T22:31:41.575Z,0
2023-03-04T22:33:47.899Z,0
2023-03-04T22:34:51.565Z,0
2023-03-04T22:36:58.804Z,0
2023-03-04T22:39:05.419Z,0
2023-03-04T22:41:14.758Z,0
2023-03-04T22:42:18.923Z,0
2023-03-04T22:44:24.995Z,0
2023-03-04T22:46:32.492Z,0
2023-03-04T22:48:38.453Z,0
2023-03-04T22:49:42.250Z,0
2023-03-04T22:51:48.457Z,0
2023-03-04T22:53:55.005Z,0
2023-03-04T22:56:01.716Z,0
2023-03-04T22:57:05.254Z,0
2023-03-04T22:59:12.117Z,0
2023-03-04T23:01:19.525Z,0
2023-03-04T23:03:26.097Z,0
2023-03-04T23:04:29.184Z,0
2023-03-04T23:05:31.649Z,0
2023-03-04T23:06:34.751Z,0
2023-03-04T23:08:41.656Z,0
2023-03-04T23:09:45.125Z,0
2023-03-04T23:10:48.225Z,0
2023-03-04T23:11:51.975Z,0
2023-03-04T23:13:59.054Z,0
2023-03-04T23:15:02.810Z,0
2023-03-04T23:16:06.204Z,0
2023-03-04T23:17:09.564Z,0
2023-03-04T23:19:14.754Z,0
2023-03-04T23:20:17.600Z,0
2023-03-04T23:21:20.792Z,0
2023-03-04T23:22:23.946Z,0
2023-03-04T23:24:30.041Z,0
2023-03-04T23:25:33.402Z,0
2023-03-04T23:26:36.897Z,0
2023-03-04T23:27:40.064Z,0
2023-03-04T23:29:47.240Z,0
2023-03-04T23:30:50.723Z,0
2023-03-04T23:31:53.480Z,0
2023-03-04T23:32:56.169Z,0
2023-03-04T23:35:02.583Z,0
2023-03-04T23:37:08.988Z,0
2023-03-04T23:38:12.429Z,0
2023-03-04T23:40:17.499Z,0
2023-03-04T23:42:24.231Z,0
2023-03-04T23:44:29.528Z,0
2023-03-04T23:45:33.551Z,0
2023-03-04T23:47:40.420Z,0
2023-03-04T23:49:47.143Z,0
2023-03-04T23:50:50.209Z,0
2023-03-04T23:51:53.854Z,0
2023-03-04T23:53:12.561Z,0
2023-03-04T23:55:18.866Z,0